Time;durP1;ratioP1;P1;durP2;ratioP2;P2;SDS_P1;SDS_P2;PMS_P1;PMS_P2;Temp;Humidity;BMP_temperature;BMP_pressure;BME280_temperature;BME280_humidity;BME280_pressure;Samples;Min_cycle;Max_cycle;Signal;HPM_P1;HPM_P2
2022/09/06 00:02:03;;;;;;;;;;;21.10;99.90;;;;;;5111636;28;20011;-80
2022/09/06 00:04:29;;;;;;;;;;;21.00;99.90;;;;;;5093744;28;19938;-80
2022/09/06 00:06:55;;;;;;;;;;;21.00;99.90;;;;;;5114915;28;19923;-80
2022/09/06 00:09:20;;;;;;;;;;;21.00;99.90;;;;;;5095521;28;19924;-80
2022/09/06 00:11:46;;;;;;;;;;;20.90;99.90;;;;;;5086755;28;20050;-80
2022/09/06 00:14:11;;;;;;;;;;;20.90;99.90;;;;;;5098017;28;19924;-80
2022/09/06 00:16:39;;;;;;;;;;;20.90;99.90;;;;;;5092672;28;19973;-80
2022/09/06 00:19:04;;;;;;;;;;;20.90;99.90;;;;;;5089173;28;19932;-80
2022/09/06 00:21:30;;;;;;;;;;;20.90;99.90;;;;;;5101980;28;19932;-80
2022/09/06 00:23:56;;;;;;;;;;;20.80;99.90;;;;;;5077873;28;19931;-80
2022/09/06 00:26:22;;;;;;;;;;;20.80;99.90;;;;;;5104959;28;19973;-80
2022/09/06 00:28:47;;;;;;;;;;;20.80;99.90;;;;;;5096392;28;19924;-80
2022/09/06 00:31:13;;;;;;;;;;;20.70;99.90;;;;;;5094610;28;19932;-80
2022/09/06 00:33:39;;;;;;;;;;;20.70;99.90;;;;;;5095235;28;19934;-80
2022/09/06 00:36:05;;;;;;;;;;;20.70;99.90;;;;;;5093801;28;20301;-80
2022/09/06 00:38:30;;;;;;;;;;;20.60;99.90;;;;;;5114362;28;20380;-80
2022/09/06 00:40:57;;;;;;;;;;;20.70;99.90;;;;;;5086799;28;19924;-80
2022/09/06 00:43:23;;;;;;;;;;;20.60;99.90;;;;;;5071075;28;19924;-80
2022/09/06 00:45:48;;;;;;;;;;;20.60;99.90;;;;;;5110089;28;19931;-80
2022/09/06 00:48:15;;;;;;;;;;;20.60;99.90;;;;;;5113654;28;19924;-80
2022/09/06 00:50:41;;;;;;;;;;;20.50;99.90;;;;;;5078931;28;19924;-80
2022/09/06 00:53:06;;;;;;;;;;;20.50;99.90;;;;;;5073359;28;20006;-80
2022/09/06 00:55:33;;;;;;;;;;;20.60;99.90;;;;;;5109762;28;19978;-80
2022/09/06 00:57:59;;;;;;;;;;;20.50;99.90;;;;;;5090696;28;19924;-80
2022/09/06 01:00:24;;;;;;;;;;;20.50;99.90;;;;;;5097395;28;20274;-80
2022/09/06 01:02:50;;;;;;;;;;;20.50;99.90;;;;;;5088525;28;20436;-82
2022/09/06 01:05:16;;;;;;;;;;;20.50;99.90;;;;;;5112951;27;19984;-80
2022/09/06 01:07:45;;;;;;;;;;;20.50;99.90;;;;;;5134819;27;20388;-80
2022/09/06 01:10:14;;;;;;;;;;;20.50;99.90;;;;;;5116028;27;19935;-80
2022/09/06 01:12:42;;;;;;;;;;;20.50;99.90;;;;;;5127758;27;19950;-80
2022/09/06 01:15:43;;;;;;;;;;;20.50;99.90;;;;;;5099508;27;19930;-80
2022/09/06 01:18:27;;;;;;;;;;;20.50;99.90;;;;;;5056947;28;19924;-80
2022/09/06 01:21:03;;;;;;;;;;;20.40;99.90;;;;;;5110128;27;19923;-79
2022/09/06 01:23:47;;;;;;;;;;;20.50;99.90;;;;;;5109387;27;19927;-81
2022/09/06 01:26:15;;;;;;;;;;;20.40;99.90;;;;;;5119844;27;19980;-80
2022/09/06 01:28:47;;;;;;;;;;;20.40;99.90;;;;;;5119618;27;20018;-80
2022/09/06 01:31:26;;;;;;;;;;;20.40;99.90;;;;;;5114021;27;19934;-80
2022/09/06 01:34:07;;;;;;;;;;;20.40;99.90;;;;;;5117506;27;20309;-80
2022/09/06 01:36:45;;;;;;;;;;;20.40;99.90;;;;;;5128920;27;20014;-82
2022/09/06 01:39:17;;;;;;;;;;;20.40;99.90;;;;;;5134691;27;20007;-80
2022/09/06 01:41:42;;;;;;;;;;;20.30;99.90;;;;;;5134487;27;19924;-80
2022/09/06 01:44:08;;;;;;;;;;;20.40;99.90;;;;;;5096153;28;19924;-80
2022/09/06 01:46:38;;;;;;;;;;;20.40;99.90;;;;;;5113634;28;19994;-81
2022/09/06 01:49:21;;;;;;;;;;;20.30;99.90;;;;;;5134084;27;19930;-81
2022/09/06 01:51:55;;;;;;;;;;;20.30;99.90;;;;;;5131502;27;20006;-80
2022/09/06 01:54:27;;;;;;;;;;;20.30;99.90;;;;;;5114112;28;19976;-80
2022/09/06 01:57:02;;;;;;;;;;;20.30;99.90;;;;;;5122009;27;20021;-80
2022/09/06 01:59:36;;;;;;;;;;;20.30;99.90;;;;;;5130386;27;19923;-81
2022/09/06 02:02:15;;;;;;;;;;;20.30;99.90;;;;;;5133246;27;20384;-81
2022/09/06 02:04:51;;;;;;;;;;;20.20;99.90;;;;;;5132394;27;19923;-80
2022/09/06 02:07:20;;;;;;;;;;;20.20;99.90;;;;;;5102652;28;20043;-80
2022/09/06 02:09:48;;;;;;;;;;;20.20;99.90;;;;;;5113027;27;19924;-80
2022/09/06 02:12:15;;;;;;;;;;;20.20;99.90;;;;;;5097570;28;19924;-80
2022/09/06 02:14:55;;;;;;;;;;;20.20;99.90;;;;;;5119593;27;19931;-80
2022/09/06 02:17:25;;;;;;;;;;;20.10;99.90;;;;;;5120462;27;20366;-80
2022/09/06 02:19:55;;;;;;;;;;;20.10;99.90;;;;;;5120476;27;20030;-80
2022/09/06 02:22:24;;;;;;;;;;;20.10;99.90;;;;;;5113436;27;20010;-80
2022/09/06 02:24:51;;;;;;;;;;;20.00;99.90;;;;;;5123402;27;19927;-80
2022/09/06 02:27:17;;;;;;;;;;;20.00;99.90;;;;;;5111279;28;19924;-80
2022/09/06 02:29:43;;;;;;;;;;;20.00;99.90;;;;;;5116526;27;20014;-80
2022/09/06 02:32:17;;;;;;;;;;;20.00;99.90;;;;;;5099687;27;20005;-80
2022/09/06 02:34:45;;;;;;;;;;;20.00;99.90;;;;;;5111008;28;20026;-80
2022/09/06 02:37:11;;;;;;;;;;;19.90;99.90;;;;;;5117409;27;20027;-80
2022/09/06 02:39:37;;;;;;;;;;;19.90;99.90;;;;;;5124598;27;20018;-81
2022/09/06 02:42:03;;;;;;;;;;;19.90;99.90;;;;;;5113182;27;20376;-81
2022/09/06 02:44:29;;;;;;;;;;;19.80;99.90;;;;;;5114583;27;19927;-80
2022/09/06 02:46:54;;;;;;;;;;;19.80;99.90;;;;;;5129356;27;19923;-80
2022/09/06 02:49:20;;;;;;;;;;;19.80;99.90;;;;;;5132282;27;19923;-81
2022/09/06 02:51:46;;;;;;;;;;;19.80;99.90;;;;;;5121343;27;19931;-80
2022/09/06 02:54:11;;;;;;;;;;;19.80;99.90;;;;;;5125299;27;19923;-80
2022/09/06 02:56:37;;;;;;;;;;;19.70;99.90;;;;;;5118101;27;20087;-80
2022/09/06 02:59:04;;;;;;;;;;;19.70;99.90;;;;;;5104811;27;19930;-80
2022/09/06 03:01:30;;;;;;;;;;;19.70;99.90;;;;;;5110621;27;20367;-81
2022/09/06 03:03:56;;;;;;;;;;;19.70;99.90;;;;;;5107863;28;19923;-80
2022/09/06 03:06:22;;;;;;;;;;;19.70;99.90;;;;;;5109654;28;19931;-80
2022/09/06 03:08:48;;;;;;;;;;;19.60;99.90;;;;;;5121728;28;19936;-80
2022/09/06 03:11:13;;;;;;;;;;;19.60;99.90;;;;;;5101370;28;19924;-80
2022/09/06 03:13:39;;;;;;;;;;;19.60;99.90;;;;;;5093349;28;19928;-80
2022/09/06 03:16:04;;;;;;;;;;;19.50;99.90;;;;;;5085163;28;19924;-80
2022/09/06 03:18:30;;;;;;;;;;;19.50;99.90;;;;;;5098806;28;19923;-80
2022/09/06 03:20:56;;;;;;;;;;;19.50;99.90;;;;;;5120921;28;20418;-80
2022/09/06 03:23:23;;;;;;;;;;;19.50;99.90;;;;;;5106961;28;19929;-80
2022/09/06 03:25:48;;;;;;;;;;;19.40;99.90;;;;;;5111191;28;19974;-80
2022/09/06 03:28:14;;;;;;;;;;;19.40;99.90;;;;;;5103437;28;19974;-79
2022/09/06 03:30:39;;;;;;;;;;;19.40;99.90;;;;;;5103673;28;19934;-81
2022/09/06 03:33:05;;;;;;;;;;;19.40;99.90;;;;;;5112038;28;19928;-81
2022/09/06 03:35:31;;;;;;;;;;;19.40;99.90;;;;;;5111172;28;20363;-80
2022/09/06 03:37:57;;;;;;;;;;;19.40;99.90;;;;;;5100069;28;19931;-80
2022/09/06 03:40:22;;;;;;;;;;;19.40;99.90;;;;;;5102415;28;19969;-80
2022/09/06 03:42:48;;;;;;;;;;;19.30;99.90;;;;;;5112422;28;19923;-80
2022/09/06 03:45:13;;;;;;;;;;;19.30;99.90;;;;;;5102376;28;19963;-80
2022/09/06 03:47:39;;;;;;;;;;;19.20;99.90;;;;;;5111350;28;20324;-81
2022/09/06 03:50:05;;;;;;;;;;;19.30;99.90;;;;;;5096996;28;19923;-80
2022/09/06 03:52:31;;;;;;;;;;;19.20;99.90;;;;;;5115386;28;19935;-80
2022/09/06 03:54:56;;;;;;;;;;;19.20;99.90;;;;;;5113543;28;19930;-80
2022/09/06 03:57:22;;;;;;;;;;;19.20;99.90;;;;;;5120678;28;20370;-80
2022/09/06 03:59:47;;;;;;;;;;;19.10;99.90;;;;;;5132382;28;20018;-81
2022/09/06 04:02:13;;;;;;;;;;;19.20;99.90;;;;;;5097381;28;20266;-81
2022/09/06 04:04:39;;;;;;;;;;;19.10;99.90;;;;;;5129881;27;19923;-82
2022/09/06 04:07:04;;;;;;;;;;;19.10;99.90;;;;;;5138397;27;20005;-80
2022/09/06 04:09:30;;;;;;;;;;;19.10;99.90;;;;;;5108722;27;19930;-81
2022/09/06 04:11:55;;;;;;;;;;;19.10;99.90;;;;;;5118651;27;20012;-80
2022/09/06 04:14:21;;;;;;;;;;;19.10;99.90;;;;;;5135531;27;19946;-80
2022/09/06 04:16:46;;;;;;;;;;;19.10;99.90;;;;;;5112197;27;19923;-80
2022/09/06 04:19:12;;;;;;;;;;;19.10;99.90;;;;;;5085516;28;20332;-80
2022/09/06 04:21:38;;;;;;;;;;;19.10;99.90;;;;;;5096720;27;19924;-81
2022/09/06 04:24:03;;;;;;;;;;;19.10;99.90;;;;;;5120284;27;20347;-80
2022/09/06 04:26:29;;;;;;;;;;;19.10;99.90;;;;;;5129055;27;20278;-80
2022/09/06 04:28:54;;;;;;;;;;;19.00;99.90;;;;;;5106899;27;19931;-80
2022/09/06 04:31:20;;;;;;;;;;;19.00;99.90;;;;;;5122516;27;19923;-80
2022/09/06 04:33:45;;;;;;;;;;;19.00;99.90;;;;;;5122116;27;19967;-81
2022/09/06 04:36:11;;;;;;;;;;;19.00;99.90;;;;;;5106465;28;20283;-80
2022/09/06 04:38:38;;;;;;;;;;;19.00;99.90;;;;;;5120916;27;19923;-80
2022/09/06 04:41:04;;;;;;;;;;;18.90;99.90;;;;;;5115893;27;20260;-80
2022/09/06 04:43:30;;;;;;;;;;;18.90;99.90;;;;;;5103917;28;19977;-80
2022/09/06 04:46:00;;;;;;;;;;;18.80;99.90;;;;;;5115022;27;20085;-80
2022/09/06 04:48:26;;;;;;;;;;;18.80;99.90;;;;;;5134677;27;19931;-80
2022/09/06 04:50:51;;;;;;;;;;;18.80;99.90;;;;;;5125594;27;19928;-80
2022/09/06 04:53:17;;;;;;;;;;;18.80;99.90;;;;;;5119905;27;20312;-82
2022/09/06 04:55:43;;;;;;;;;;;18.70;99.90;;;;;;5117288;27;20290;-80
2022/09/06 04:58:08;;;;;;;;;;;18.70;99.90;;;;;;5117892;27;19923;-80
2022/09/06 05:00:35;;;;;;;;;;;18.70;99.90;;;;;;5097499;28;19928;-79
2022/09/06 05:03:00;;;;;;;;;;;18.60;99.90;;;;;;5113265;28;19950;-79
2022/09/06 05:05:26;;;;;;;;;;;18.60;99.90;;;;;;5094650;28;20260;-79
2022/09/06 05:07:52;;;;;;;;;;;18.50;99.90;;;;;;5078015;28;19932;-79
2022/09/06 05:10:18;;;;;;;;;;;18.50;99.90;;;;;;5113152;28;20049;-79
2022/09/06 05:12:46;;;;;;;;;;;18.40;99.90;;;;;;5088174;28;20010;-79
2022/09/06 05:15:12;;;;;;;;;;;18.40;99.90;;;;;;5077233;28;19924;-79
2022/09/06 05:17:37;;;;;;;;;;;18.30;99.90;;;;;;5094045;28;20057;-79
2022/09/06 05:20:03;;;;;;;;;;;18.30;99.90;;;;;;5095218;28;19924;-78
2022/09/06 05:22:29;;;;;;;;;;;18.30;99.90;;;;;;5082995;28;19925;-79
2022/09/06 05:24:54;;;;;;;;;;;18.30;99.90;;;;;;5098292;28;19924;-80
2022/09/06 05:27:20;;;;;;;;;;;18.30;99.90;;;;;;5092715;28;19946;-78
2022/09/06 05:29:46;;;;;;;;;;;18.30;99.90;;;;;;5076335;28;19924;-79
2022/09/06 05:32:11;;;;;;;;;;;18.30;99.90;;;;;;5107974;28;19924;-79
2022/09/06 05:34:37;;;;;;;;;;;18.30;99.90;;;;;;5096815;28;20351;-79
2022/09/06 05:37:02;;;;;;;;;;;18.30;99.90;;;;;;5113235;28;19923;-80
2022/09/06 05:39:28;;;;;;;;;;;18.30;99.90;;;;;;5097257;28;19927;-78
2022/09/06 05:41:53;;;;;;;;;;;18.20;99.90;;;;;;5098677;28;19924;-79
2022/09/06 05:44:19;;;;;;;;;;;18.20;99.90;;;;;;5095924;28;20390;-79
2022/09/06 05:46:45;;;;;;;;;;;18.20;99.90;;;;;;5109322;28;19924;-80
2022/09/06 05:49:11;;;;;;;;;;;18.10;99.90;;;;;;5097328;28;19923;-82
2022/09/06 05:51:36;;;;;;;;;;;18.10;99.90;;;;;;5101305;28;20291;-84
2022/09/06 05:54:02;;;;;;;;;;;18.10;99.90;;;;;;5107642;28;19998;-81
2022/09/06 05:56:27;;;;;;;;;;;18.10;99.90;;;;;;5113089;28;19924;-88
2022/09/06 05:58:53;;;;;;;;;;;18.10;99.90;;;;;;5096095;28;19924;-89
2022/09/06 06:01:20;;;;;;;;;;;18.10;99.90;;;;;;5094074;28;20253;-86
2022/09/06 06:04:04;;;;;;;;;;;18.10;99.90;;;;;;5095783;28;19927;-85
2022/09/06 06:06:31;;;;;;;;;;;18.10;99.90;;;;;;5122830;27;20344;-84
2022/09/06 06:08:57;;;;;;;;;;;18.10;99.90;;;;;;5130165;27;20286;-85
2022/09/06 06:11:23;;;;;;;;;;;18.10;99.90;;;;;;5113494;27;19927;-85
2022/09/06 06:13:49;;;;;;;;;;;18.10;99.90;;;;;;5112549;27;19923;-85
2022/09/06 06:16:15;;;;;;;;;;;18.10;99.90;;;;;;5097148;27;19927;-84
2022/09/06 06:18:41;;;;;;;;;;;18.10;99.90;;;;;;5130939;27;19963;-86
2022/09/06 06:21:12;;;;;;;;;;;18.10;99.90;;;;;;5142174;27;20537;-81
2022/09/06 06:23:38;;;;;;;;;;;18.00;99.90;;;;;;5109341;27;19949;-80
2022/09/06 06:26:04;;;;;;;;;;;18.10;99.90;;;;;;5109674;27;19923;-80
2022/09/06 06:28:31;;;;;;;;;;;18.00;99.90;;;;;;5115770;27;19927;-80
2022/09/06 06:30:56;;;;;;;;;;;18.00;99.90;;;;;;5124347;27;20281;-80
2022/09/06 06:33:22;;;;;;;;;;;18.00;99.90;;;;;;5115646;27;20097;-80
2022/09/06 06:36:00;;;;;;;;;;;18.00;99.90;;;;;;5116532;27;19931;-79
2022/09/06 06:38:29;;;;;;;;;;;18.00;99.90;;;;;;5116745;27;19930;-80
2022/09/06 06:40:55;;;;;;;;;;;18.00;99.90;;;;;;5114579;27;19924;-80
2022/09/06 06:43:20;;;;;;;;;;;18.00;99.90;;;;;;5116141;27;19980;-79
2022/09/06 06:45:49;;;;;;;;;;;18.00;99.90;;;;;;5116381;28;20014;-80
2022/09/06 06:48:15;;;;;;;;;;;18.00;99.90;;;;;;5099819;27;19953;-80
2022/09/06 06:50:41;;;;;;;;;;;18.00;99.90;;;;;;5115503;28;19948;-80
2022/09/06 06:53:06;;;;;;;;;;;18.00;99.90;;;;;;5134359;27;19978;-80
2022/09/06 06:55:32;;;;;;;;;;;18.00;99.90;;;;;;5132834;27;19924;-80
2022/09/06 06:58:01;;;;;;;;;;;18.00;99.90;;;;;;5116476;27;19924;-80
2022/09/06 07:00:27;;;;;;;;;;;18.00;99.90;;;;;;5132452;27;19935;-79
2022/09/06 07:02:54;;;;;;;;;;;18.10;99.90;;;;;;5133059;27;19923;-79
2022/09/06 07:05:20;;;;;;;;;;;18.10;99.90;;;;;;5115957;28;19935;-80
2022/09/06 07:07:46;;;;;;;;;;;18.30;99.90;;;;;;5133267;28;19924;-80
2022/09/06 07:10:11;;;;;;;;;;;18.40;99.90;;;;;;5132966;28;19965;-80
2022/09/06 07:12:37;;;;;;;;;;;18.50;99.90;;;;;;5114235;28;20359;-80
2022/09/06 07:15:03;;;;;;;;;;;18.60;99.90;;;;;;5132538;28;19923;-80
2022/09/06 07:17:28;;;;;;;;;;;18.70;99.90;;;;;;5099003;28;19975;-80
2022/09/06 07:19:54;;;;;;;;;;;18.80;99.90;;;;;;5095108;28;20015;-80
2022/09/06 07:22:20;;;;;;;;;;;19.00;99.90;;;;;;5116020;28;19935;-80
2022/09/06 07:24:45;;;;;;;;;;;19.10;99.90;;;;;;5099785;28;19968;-80
2022/09/06 07:27:11;;;;;;;;;;;19.20;99.90;;;;;;5095867;28;20295;-79
2022/09/06 07:29:36;;;;;;;;;;;19.30;99.90;;;;;;5107700;28;19971;-80
2022/09/06 07:32:02;;;;;;;;;;;19.40;99.90;;;;;;5133348;28;19949;-80
2022/09/06 07:34:28;;;;;;;;;;;19.50;99.90;;;;;;5111290;28;19931;-80
2022/09/06 07:36:53;;;;;;;;;;;19.60;99.90;;;;;;5117377;28;19930;-80
2022/09/06 07:39:19;;;;;;;;;;;19.70;99.90;;;;;;5133243;28;19923;-80
2022/09/06 07:41:45;;;;;;;;;;;19.80;99.90;;;;;;5132931;28;19946;-80
2022/09/06 07:44:10;;;;;;;;;;;19.90;99.90;;;;;;5128196;27;19959;-86
2022/09/06 07:46:36;;;;;;;;;;;20.00;99.90;;;;;;5111449;27;19930;-88
2022/09/06 07:49:05;;;;;;;;;;;20.10;99.90;;;;;;5114154;28;20421;-85
2022/09/06 07:51:30;;;;;;;;;;;20.30;99.90;;;;;;5125775;27;20018;-90
2022/09/06 07:53:56;;;;;;;;;;;20.30;99.90;;;;;;5115778;28;20722;-88
2022/09/06 07:56:22;;;;;;;;;;;20.50;99.90;;;;;;5130708;27;20427;-93
2022/09/06 07:58:48;;;;;;;;;;;20.60;99.90;;;;;;5119636;27;20007;-89
2022/09/06 08:01:17;;;;;;;;;;;20.70;99.90;;;;;;5104150;27;19928;-84
2022/09/06 08:03:43;;;;;;;;;;;20.80;99.90;;;;;;5109569;28;19966;-88
2022/09/06 08:06:09;;;;;;;;;;;20.80;99.90;;;;;;5112486;27;19928;-92
2022/09/06 08:08:34;;;;;;;;;;;20.80;99.90;;;;;;5130086;27;19927;-91
2022/09/06 08:11:00;;;;;;;;;;;20.90;99.90;;;;;;5133549;27;19932;-90
2022/09/06 08:13:25;;;;;;;;;;;20.90;99.90;;;;;;5098388;27;19978;-94
2022/09/06 08:16:01;;;;;;;;;;;21.00;99.90;;;;;;5113923;27;19945;-94
2022/09/06 08:18:27;;;;;;;;;;;21.10;99.90;;;;;;5114616;27;19927;-91
2022/09/06 08:20:52;;;;;;;;;;;21.10;99.90;;;;;;5096491;27;19996;-92
2022/09/06 08:23:18;;;;;;;;;;;21.10;99.90;;;;;;5114857;27;19943;-95
2022/09/06 08:25:43;;;;;;;;;;;21.20;99.90;;;;;;5116423;27;20010;-88
2022/09/06 08:28:09;;;;;;;;;;;21.20;99.90;;;;;;5116795;27;19978;-92
2022/09/06 08:30:35;;;;;;;;;;;21.30;99.90;;;;;;5114657;27;19928;-88
2022/09/06 08:33:02;;;;;;;;;;;21.30;99.90;;;;;;5133705;27;20856;-91
2022/09/06 08:35:27;;;;;;;;;;;21.30;99.90;;;;;;5099453;27;19978;-90
2022/09/06 08:37:56;;;;;;;;;;;21.30;99.90;;;;;;5115627;27;19975;-87
2022/09/06 08:40:23;;;;;;;;;;;21.50;99.90;;;;;;5134050;27;20018;-91
2022/09/06 08:42:49;;;;;;;;;;;21.60;99.90;;;;;;5116871;27;19994;-89
2022/09/06 08:45:18;;;;;;;;;;;21.70;99.90;;;;;;5097596;27;20386;-87
2022/09/06 08:47:44;;;;;;;;;;;21.80;99.90;;;;;;5133573;27;19980;-86
2022/09/06 08:50:10;;;;;;;;;;;21.90;99.90;;;;;;5116749;27;20184;-88
2022/09/06 08:52:51;;;;;;;;;;;22.00;99.90;;;;;;5119467;27;19923;-94
2022/09/06 08:55:26;;;;;;;;;;;22.20;99.90;;;;;;5117453;27;20006;-92
2022/09/06 08:57:52;;;;;;;;;;;22.30;99.90;;;;;;5114388;27;20438;-91
2022/09/06 09:00:18;;;;;;;;;;;22.40;99.90;;;;;;5114164;27;19927;-92
2022/09/06 09:02:45;;;;;;;;;;;22.50;99.90;;;;;;5133529;27;20386;-87
2022/09/06 09:05:19;;;;;;;;;;;22.60;99.90;;;;;;5115237;27;19928;-87
2022/09/06 09:07:48;;;;;;;;;;;22.70;99.90;;;;;;5131818;27;19934;-86
2022/09/06 09:10:25;;;;;;;;;;;22.70;99.90;;;;;;5112964;27;19927;-88
2022/09/06 09:12:51;;;;;;;;;;;22.70;99.90;;;;;;5132276;27;20010;-87
2022/09/06 09:15:18;;;;;;;;;;;22.60;99.90;;;;;;5096137;27;20011;-88
2022/09/06 09:17:44;;;;;;;;;;;22.60;99.90;;;;;;5131052;27;19927;-89
2022/09/06 09:20:10;;;;;;;;;;;22.40;99.90;;;;;;5115416;27;19931;-86
2022/09/06 09:22:36;;;;;;;;;;;22.30;99.90;;;;;;5115818;27;19934;-88
2022/09/06 09:25:02;;;;;;;;;;;22.30;99.90;;;;;;5094936;28;19935;-90
2022/09/06 09:27:28;;;;;;;;;;;22.50;99.90;;;;;;5112815;28;19931;-88
2022/09/06 09:29:54;;;;;;;;;;;22.70;99.90;;;;;;5112432;28;20019;-89
2022/09/06 09:32:30;;;;;;;;;;;22.90;99.90;;;;;;5127197;27;19940;-85
2022/09/06 09:35:14;;;;;;;;;;;23.10;99.90;;;;;;5122087;27;20370;-88
2022/09/06 09:37:40;;;;;;;;;;;23.20;99.90;;;;;;5113372;27;19931;-88
2022/09/06 09:40:11;;;;;;;;;;;23.40;99.90;;;;;;5133881;27;20457;-88
2022/09/06 09:42:37;;;;;;;;;;;23.50;99.90;;;;;;5131807;27;20287;-88
2022/09/06 09:45:23;;;;;;;;;;;23.60;99.90;;;;;;5115146;27;19927;-90
2022/09/06 09:47:48;;;;;;;;;;;23.90;99.90;;;;;;5114094;27;19933;-85
2022/09/06 09:50:27;;;;;;;;;;;24.10;99.90;;;;;;5113351;27;19923;-86
2022/09/06 09:52:53;;;;;;;;;;;24.30;99.90;;;;;;5129247;27;19934;-86
2022/09/06 09:55:26;;;;;;;;;;;24.50;99.90;;;;;;5117015;27;19927;-89
2022/09/06 09:57:53;;;;;;;;;;;24.60;99.90;;;;;;5132303;27;19923;-85
2022/09/06 10:00:38;;;;;;;;;;;24.80;99.90;;;;;;5111510;28;20100;-84
2022/09/06 10:03:18;;;;;;;;;;;24.90;99.90;;;;;;5099886;28;20006;-85
2022/09/06 10:05:54;;;;;;;;;;;25.00;99.90;;;;;;5110423;28;19928;-85
2022/09/06 10:08:22;;;;;;;;;;;25.00;99.90;;;;;;5110421;28;19939;-85
2022/09/06 10:10:48;;;;;;;;;;;25.10;99.90;;;;;;5111741;28;20027;-85
2022/09/06 10:13:21;;;;;;;;;;;25.20;99.90;;;;;;5113404;27;19923;-82
2022/09/06 10:15:48;;;;;;;;;;;25.30;99.90;;;;;;5118467;27;20278;-85
2022/09/06 10:18:19;;;;;;;;;;;25.40;99.90;;;;;;5094841;27;19935;-85
2022/09/06 10:21:04;;;;;;;;;;;25.50;99.90;;;;;;5131727;27;20006;-86
2022/09/06 10:23:49;;;;;;;;;;;25.60;99.90;;;;;;5121080;27;19967;-86
2022/09/06 10:26:21;;;;;;;;;;;25.70;99.90;;;;;;5130873;27;19949;-86
2022/09/06 10:28:47;;;;;;;;;;;25.90;99.90;;;;;;5129319;27;19927;-86
2022/09/06 10:31:16;;;;;;;;;;;25.90;99.20;;;;;;5097415;27;19977;-86
2022/09/06 10:34:00;;;;;;;;;;;25.90;99.50;;;;;;5116039;27;19923;-87
2022/09/06 10:36:34;;;;;;;;;;;26.00;99.00;;;;;;5134118;27;19923;-86
2022/09/06 10:39:02;;;;;;;;;;;26.10;98.80;;;;;;5111537;28;19927;-86
2022/09/06 10:41:38;;;;;;;;;;;26.20;99.50;;;;;;5133882;27;19927;-86
2022/09/06 10:44:16;;;;;;;;;;;26.40;98.60;;;;;;5133241;27;19946;-86
2022/09/06 10:46:43;;;;;;;;;;;26.50;99.40;;;;;;5104894;28;19923;-86
2022/09/06 10:49:10;;;;;;;;;;;26.70;99.50;;;;;;5110656;27;19944;-87
2022/09/06 10:51:42;;;;;;;;;;;26.90;98.90;;;;;;5112952;28;19924;-86
2022/09/06 10:54:09;;;;;;;;;;;27.10;98.70;;;;;;5112832;28;19934;-86
2022/09/06 10:56:54;;;;;;;;;;;27.20;97.30;;;;;;5112907;28;19970;-87
2022/09/06 10:59:27;;;;;;;;;;;27.20;96.50;;;;;;5112563;28;19923;-86
2022/09/06 11:02:19;;;;;;;;;;;27.30;97.80;;;;;;5095869;28;19923;-86
2022/09/06 11:04:47;;;;;;;;;;;27.40;96.90;;;;;;5092355;28;19924;-86
2022/09/06 11:07:18;;;;;;;;;;;27.50;97.00;;;;;;5133317;28;19924;-87
2022/09/06 11:09:46;;;;;;;;;;;27.50;95.60;;;;;;5116427;28;19923;-86
2022/09/06 11:12:23;;;;;;;;;;;27.60;96.10;;;;;;5109244;28;19930;-86
2022/09/06 11:14:50;;;;;;;;;;;27.80;97.30;;;;;;5112809;28;19924;-87
2022/09/06 11:17:34;;;;;;;;;;;27.90;96.70;;;;;;5093421;28;20007;-86
2022/09/06 11:20:13;;;;;;;;;;;28.10;96.70;;;;;;5126467;27;19927;-84
2022/09/06 11:23:14;;;;;;;;;;;28.40;95.80;;;;;;5134156;27;20286;-86
2022/09/06 11:25:55;;;;;;;;;;;28.70;95.80;;;;;;5040921;28;19929;-84
2022/09/06 11:28:29;;;;;;;;;;;29.00;95.00;;;;;;5127375;27;19931;-85
2022/09/06 11:30:56;;;;;;;;;;;29.20;94.20;;;;;;5136768;27;19928;-85
2022/09/06 11:33:21;;;;;;;;;;;29.40;93.30;;;;;;5119066;27;19924;-86
2022/09/06 11:35:47;;;;;;;;;;;29.50;93.00;;;;;;5115576;28;19931;-86
2022/09/06 11:38:13;;;;;;;;;;;29.80;93.70;;;;;;5099910;27;19923;-86
2022/09/06 11:40:40;;;;;;;;;;;29.90;92.90;;;;;;5137312;27;19977;-85
2022/09/06 11:43:14;;;;;;;;;;;30.00;93.00;;;;;;5136942;27;19972;-86
2022/09/06 11:45:45;;;;;;;;;;;30.10;92.60;;;;;;5111364;28;19928;-86
2022/09/06 11:48:22;;;;;;;;;;;30.20;92.50;;;;;;5116370;28;20268;-85
2022/09/06 11:50:54;;;;;;;;;;;30.50;91.90;;;;;;5134285;27;19931;-85
2022/09/06 11:53:21;;;;;;;;;;;30.30;92.00;;;;;;5137636;27;19927;-85
2022/09/06 11:55:47;;;;;;;;;;;30.60;92.10;;;;;;5132011;27;19923;-86
2022/09/06 11:58:16;;;;;;;;;;;30.50;92.10;;;;;;5133143;27;19923;-85
2022/09/06 12:00:45;;;;;;;;;;;30.70;91.20;;;;;;5119530;27;20377;-85
2022/09/06 12:03:30;;;;;;;;;;;30.90;91.60;;;;;;5118634;27;20031;-85
2022/09/06 12:06:14;;;;;;;;;;;31.00;91.20;;;;;;5118255;27;20293;-85
2022/09/06 12:08:40;;;;;;;;;;;31.20;91.80;;;;;;5116283;28;19980;-86
2022/09/06 12:11:24;;;;;;;;;;;31.50;90.70;;;;;;5103279;27;20001;-84
2022/09/06 12:13:53;;;;;;;;;;;31.60;89.60;;;;;;5133885;27;19978;-88
2022/09/06 12:16:19;;;;;;;;;;;31.80;90.00;;;;;;5117889;27;19923;-88
2022/09/06 12:18:48;;;;;;;;;;;31.80;87.80;;;;;;5135583;27;19927;-89
2022/09/06 12:21:32;;;;;;;;;;;31.70;88.20;;;;;;5136722;27;19924;-88
2022/09/06 12:23:58;;;;;;;;;;;32.00;90.00;;;;;;5119091;27;19991;-87
2022/09/06 12:26:46;;;;;;;;;;;32.00;86.60;;;;;;5119390;27;19971;-87
2022/09/06 12:29:12;;;;;;;;;;;31.90;88.20;;;;;;5115319;28;20007;-89
2022/09/06 12:31:39;;;;;;;;;;;32.10;88.20;;;;;;5098408;28;19935;-89
2022/09/06 12:34:10;;;;;;;;;;;32.40;87.50;;;;;;5104872;28;19923;-89
2022/09/06 12:36:45;;;;;;;;;;;32.30;86.50;;;;;;5115647;28;19930;-87
2022/09/06 12:39:13;;;;;;;;;;;32.40;85.60;;;;;;5119078;27;19934;-87
2022/09/06 12:41:41;;;;;;;;;;;32.50;85.40;;;;;;5098485;28;19947;-87
2022/09/06 12:44:08;;;;;;;;;;;32.20;85.30;;;;;;5116951;27;19923;-87
2022/09/06 12:46:34;;;;;;;;;;;32.20;86.00;;;;;;5111701;27;20517;-92
2022/09/06 12:49:08;;;;;;;;;;;32.00;87.10;;;;;;5141250;27;19927;-90
2022/09/06 12:51:35;;;;;;;;;;;32.00;86.00;;;;;;5120017;27;19934;-92
2022/09/06 12:54:03;;;;;;;;;;;31.70;85.10;;;;;;5117334;27;19954;-93
2022/09/06 12:56:31;;;;;;;;;;;31.30;86.10;;;;;;5117218;27;20339;-94
2022/09/06 12:59:16;;;;;;;;;;;31.10;87.20;;;;;;5116757;27;19931;-93
2022/09/06 13:01:54;;;;;;;;;;;30.60;87.10;;;;;;5137595;27;19934;-93
2022/09/06 13:04:25;;;;;;;;;;;30.80;88.60;;;;;;5135417;27;19934;-93
2022/09/06 13:06:51;;;;;;;;;;;31.30;89.20;;;;;;5116746;27;19930;-93
2022/09/06 13:09:19;;;;;;;;;;;31.20;88.50;;;;;;5116620;27;19923;-93
2022/09/06 13:11:52;;;;;;;;;;;31.70;89.90;;;;;;5117122;27;20010;-93
2022/09/06 13:14:20;;;;;;;;;;;32.00;86.40;;;;;;5120623;27;20383;-93
2022/09/06 13:16:50;;;;;;;;;;;32.20;87.40;;;;;;5134492;27;20283;-87
2022/09/06 13:19:17;;;;;;;;;;;32.70;88.60;;;;;;5136441;27;19923;-88
2022/09/06 13:21:44;;;;;;;;;;;32.90;86.80;;;;;;5138858;27;19959;-89
2022/09/06 13:24:25;;;;;;;;;;;33.20;85.60;;;;;;5113045;27;20023;-90
2022/09/06 13:26:51;;;;;;;;;;;33.10;85.10;;;;;;5116121;27;19956;-89
2022/09/06 13:29:18;;;;;;;;;;;33.60;84.70;;;;;;5131957;27;19928;-86
2022/09/06 13:31:55;;;;;;;;;;;33.80;83.90;;;;;;5114726;27;20386;-81
2022/09/06 13:34:22;;;;;;;;;;;33.40;83.10;;;;;;5096918;27;19956;-85
2022/09/06 13:37:07;;;;;;;;;;;33.20;84.60;;;;;;5132183;27;19972;-87
2022/09/06 13:39:37;;;;;;;;;;;32.30;83.10;;;;;;5115200;27;19972;-86
2022/09/06 13:42:04;;;;;;;;;;;31.80;84.60;;;;;;5114857;27;19931;-87
2022/09/06 13:44:31;;;;;;;;;;;32.10;87.50;;;;;;5121630;27;19974;-87
2022/09/06 13:46:57;;;;;;;;;;;32.30;84.20;;;;;;5095955;27;20367;-88
2022/09/06 13:49:22;;;;;;;;;;;32.00;84.10;;;;;;5097160;28;20001;-87
2022/09/06 13:51:49;;;;;;;;;;;31.60;83.80;;;;;;5094747;28;20275;-90
2022/09/06 13:54:15;;;;;;;;;;;32.40;86.20;;;;;;5135288;27;19931;-87
2022/09/06 13:56:43;;;;;;;;;;;33.30;86.00;;;;;;5140529;27;20024;-88
2022/09/06 13:59:09;;;;;;;;;;;34.10;83.90;;;;;;5129053;27;19949;-82
2022/09/06 14:01:35;;;;;;;;;;;34.80;85.60;;;;;;5131109;27;20370;-86
2022/09/06 14:04:01;;;;;;;;;;;35.30;80.50;;;;;;5130890;27;19927;-86
2022/09/06 14:06:27;;;;;;;;;;;35.20;79.70;;;;;;5144843;27;20375;-85
2022/09/06 14:08:52;;;;;;;;;;;35.50;77.70;;;;;;5140377;27;19927;-83
2022/09/06 14:11:18;;;;;;;;;;;36.00;78.90;;;;;;5113446;27;19923;-84
2022/09/06 14:13:43;;;;;;;;;;;35.80;77.60;;;;;;5131321;27;19928;-82
2022/09/06 14:16:09;;;;;;;;;;;35.30;77.90;;;;;;5114066;27;19928;-84
2022/09/06 14:18:35;;;;;;;;;;;34.80;77.10;;;;;;5110931;27;20015;-83
2022/09/06 14:21:01;;;;;;;;;;;34.20;77.90;;;;;;5122718;27;19935;-83
2022/09/06 14:23:27;;;;;;;;;;;34.00;78.20;;;;;;5132190;27;19927;-83
2022/09/06 14:25:59;;;;;;;;;;;33.40;78.00;;;;;;5114418;27;19997;-84